Bradford, Rhode Island
Current Conditions -  °F | °C
As of 5:53 PM on Saturday 20 Dec 2014 (Local Time) from KWST Reporting Station
Overcast Overcast  
Wind Chill: 29°   Ceiling: 3500
Heat Index: 35°   Visibility: 10mi
Dew Point: 25°   Wind: 7mph
Humidity: 67%   Direction: 20°NNE
Pressure: 30.26"   Gusts: NA
Location:  41.39°N, 71.75°W
Report Text: KWST 202253Z AUTO 02006KT 10SM OVC035 02/M04 A3026 RMK AO2 SLP248 T00171039
Loading
Personal Weather Stations






























Interactive Weather Map New forecast layout! Learn more

10-Day Weather Forecast

Advertisements
Track Severe Weather on mobile